sensor_id;sensor_type;location;lat;lon;timestamp;P1;durP1;ratioP1;P2;durP2;ratioP2
3523;SDS011;1776;53.330;11.498;2023-04-24T00:02:24;3.90;;;2.17;;
3523;SDS011;1776;53.330;11.498;2023-04-24T00:04:50;2.40;;;2.20;;
3523;SDS011;1776;53.330;11.498;2023-04-24T00:07:16;3.27;;;2.17;;
3523;SDS011;1776;53.330;11.498;2023-04-24T00:09:42;2.90;;;2.27;;
3523;SDS011;1776;53.330;11.498;2023-04-24T00:12:10;3.13;;;2.23;;
3523;SDS011;1776;53.330;11.498;2023-04-24T00:14:35;3.00;;;2.63;;
3523;SDS011;1776;53.330;11.498;2023-04-24T00:17:01;2.50;;;2.30;;
3523;SDS011;1776;53.330;11.498;2023-04-24T00:19:27;3.47;;;2.80;;
3523;SDS011;1776;53.330;11.498;2023-04-24T00:21:53;2.80;;;2.33;;
3523;SDS011;1776;53.330;11.498;2023-04-24T00:24:19;2.90;;;2.67;;
3523;SDS011;1776;53.330;11.498;2023-04-24T00:26:44;2.80;;;2.60;;
3523;SDS011;1776;53.330;11.498;2023-04-24T00:29:09;4.10;;;2.70;;
3523;SDS011;1776;53.330;11.498;2023-04-24T00:31:34;3.87;;;2.33;;
3523;SDS011;1776;53.330;11.498;2023-04-24T00:34:03;2.70;;;2.30;;
3523;SDS011;1776;53.330;11.498;2023-04-24T00:36:29;3.67;;;2.47;;
3523;SDS011;1776;53.330;11.498;2023-04-24T00:38:55;2.80;;;2.60;;
3523;SDS011;1776;53.330;11.498;2023-04-24T00:41:21;3.13;;;2.67;;
3523;SDS011;1776;53.330;11.498;2023-04-24T00:43:47;2.90;;;2.70;;
3523;SDS011;1776;53.330;11.498;2023-04-24T00:46:12;2.80;;;1.97;;
3523;SDS011;1776;53.330;11.498;2023-04-24T00:48:39;4.27;;;2.83;;
3523;SDS011;1776;53.330;11.498;2023-04-24T00:51:05;2.93;;;2.63;;
3523;SDS011;1776;53.330;11.498;2023-04-24T00:53:30;4.67;;;2.63;;
3523;SDS011;1776;53.330;11.498;2023-04-24T00:55:56;5.13;;;3.50;;
3523;SDS011;1776;53.330;11.498;2023-04-24T00:58:22;3.20;;;2.97;;
3523;SDS011;1776;53.330;11.498;2023-04-24T01:00:48;5.83;;;4.07;;
3523;SDS011;1776;53.330;11.498;2023-04-24T01:03:14;3.50;;;3.20;;
3523;SDS011;1776;53.330;11.498;2023-04-24T01:05:40;3.60;;;3.27;;
3523;SDS011;1776;53.330;11.498;2023-04-24T01:08:06;5.50;;;3.70;;
3523;SDS011;1776;53.330;11.498;2023-04-24T01:10:31;4.00;;;3.70;;
3523;SDS011;1776;53.330;11.498;2023-04-24T01:12:58;5.30;;;3.23;;
3523;SDS011;1776;53.330;11.498;2023-04-24T01:15:23;5.20;;;3.37;;
3523;SDS011;1776;53.330;11.498;2023-04-24T01:17:49;3.87;;;3.27;;
3523;SDS011;1776;53.330;11.498;2023-04-24T01:20:14;7.47;;;3.33;;
3523;SDS011;1776;53.330;11.498;2023-04-24T01:22:41;4.43;;;3.50;;
3523;SDS011;1776;53.330;11.498;2023-04-24T01:25:07;3.40;;;3.10;;
3523;SDS011;1776;53.330;11.498;2023-04-24T01:27:33;2.77;;;2.50;;
3523;SDS011;1776;53.330;11.498;2023-04-24T01:29:58;3.27;;;2.97;;
3523;SDS011;1776;53.330;11.498;2023-04-24T01:32:24;2.77;;;2.40;;
3523;SDS011;1776;53.330;11.498;2023-04-24T01:34:50;3.30;;;3.00;;
3523;SDS011;1776;53.330;11.498;2023-04-24T01:37:16;3.23;;;2.73;;
3523;SDS011;1776;53.330;11.498;2023-04-24T01:39:41;3.60;;;3.30;;
3523;SDS011;1776;53.330;11.498;2023-04-24T01:42:07;3.00;;;2.33;;
3523;SDS011;1776;53.330;11.498;2023-04-24T01:44:33;3.90;;;2.80;;
3523;SDS011;1776;53.330;11.498;2023-04-24T01:47:00;3.60;;;2.67;;
3523;SDS011;1776;53.330;11.498;2023-04-24T01:49:26;2.80;;;2.60;;
3523;SDS011;1776;53.330;11.498;2023-04-24T01:51:51;4.50;;;3.10;;
3523;SDS011;1776;53.330;11.498;2023-04-24T01:54:16;4.50;;;3.03;;
3523;SDS011;1776;53.330;11.498;2023-04-24T01:56:42;4.10;;;3.33;;
3523;SDS011;1776;53.330;11.498;2023-04-24T01:59:11;3.83;;;3.37;;
3523;SDS011;1776;53.330;11.498;2023-04-24T02:01:37;6.57;;;3.10;;
3523;SDS011;1776;53.330;11.498;2023-04-24T02:04:04;4.30;;;2.73;;
3523;SDS011;1776;53.330;11.498;2023-04-24T02:06:30;3.80;;;3.40;;
3523;SDS011;1776;53.330;11.498;2023-04-24T02:08:56;3.17;;;2.87;;
3523;SDS011;1776;53.330;11.498;2023-04-24T02:11:22;2.70;;;2.50;;
3523;SDS011;1776;53.330;11.498;2023-04-24T02:13:47;3.13;;;2.83;;
3523;SDS011;1776;53.330;11.498;2023-04-24T02:16:13;3.57;;;3.27;;
3523;SDS011;1776;53.330;11.498;2023-04-24T02:18:38;6.20;;;3.10;;
3523;SDS011;1776;53.330;11.498;2023-04-24T02:21:03;3.40;;;2.63;;
3523;SDS011;1776;53.330;11.498;2023-04-24T02:23:28;3.70;;;2.70;;
3523;SDS011;1776;53.330;11.498;2023-04-24T02:25:54;4.50;;;3.00;;
3523;SDS011;1776;53.330;11.498;2023-04-24T02:28:19;3.93;;;3.60;;
3523;SDS011;1776;53.330;11.498;2023-04-24T02:30:44;6.37;;;3.97;;
3523;SDS011;1776;53.330;11.498;2023-04-24T02:33:11;3.50;;;3.10;;
3523;SDS011;1776;53.330;11.498;2023-04-24T02:35:36;3.73;;;3.37;;
3523;SDS011;1776;53.330;11.498;2023-04-24T02:38:02;3.83;;;3.40;;
3523;SDS011;1776;53.330;11.498;2023-04-24T02:40:28;3.30;;;3.00;;
3523;SDS011;1776;53.330;11.498;2023-04-24T02:42:53;4.23;;;3.83;;
3523;SDS011;1776;53.330;11.498;2023-04-24T02:45:18;4.63;;;3.50;;
3523;SDS011;1776;53.330;11.498;2023-04-24T02:47:44;3.90;;;3.33;;
3523;SDS011;1776;53.330;11.498;2023-04-24T02:50:09;3.47;;;3.17;;
3523;SDS011;1776;53.330;11.498;2023-04-24T02:52:35;4.90;;;3.10;;
3523;SDS011;1776;53.330;11.498;2023-04-24T02:55:00;3.70;;;3.37;;
3523;SDS011;1776;53.330;11.498;2023-04-24T02:57:25;3.83;;;3.13;;
3523;SDS011;1776;53.330;11.498;2023-04-24T02:59:50;5.00;;;3.83;;
3523;SDS011;1776;53.330;11.498;2023-04-24T03:02:16;4.33;;;3.80;;
3523;SDS011;1776;53.330;11.498;2023-04-24T03:04:41;4.77;;;3.90;;
3523;SDS011;1776;53.330;11.498;2023-04-24T03:07:10;3.20;;;2.90;;
3523;SDS011;1776;53.330;11.498;2023-04-24T03:09:35;10.27;;;3.60;;
3523;SDS011;1776;53.330;11.498;2023-04-24T03:12:01;3.10;;;2.60;;
3523;SDS011;1776;53.330;11.498;2023-04-24T03:14:26;4.90;;;3.50;;
3523;SDS011;1776;53.330;11.498;2023-04-24T03:16:51;3.43;;;3.13;;
3523;SDS011;1776;53.330;11.498;2023-04-24T03:19:16;3.83;;;3.53;;
3523;SDS011;1776;53.330;11.498;2023-04-24T03:21:44;3.80;;;3.40;;
3523;SDS011;1776;53.330;11.498;2023-04-24T03:24:09;4.30;;;3.90;;
3523;SDS011;1776;53.330;11.498;2023-04-24T03:26:34;3.57;;;3.00;;
3523;SDS011;1776;53.330;11.498;2023-04-24T03:29:00;3.60;;;3.30;;
3523;SDS011;1776;53.330;11.498;2023-04-24T03:31:25;3.83;;;3.40;;
3523;SDS011;1776;53.330;11.498;2023-04-24T03:33:50;4.13;;;3.83;;
3523;SDS011;1776;53.330;11.498;2023-04-24T03:36:16;3.63;;;3.00;;
3523;SDS011;1776;53.330;11.498;2023-04-24T03:38:41;3.07;;;2.53;;
3523;SDS011;1776;53.330;11.498;2023-04-24T03:41:07;4.20;;;3.53;;
3523;SDS011;1776;53.330;11.498;2023-04-24T03:43:32;4.13;;;3.63;;
3523;SDS011;1776;53.330;11.498;2023-04-24T03:45:59;3.83;;;3.53;;
3523;SDS011;1776;53.330;11.498;2023-04-24T03:48:25;4.20;;;3.77;;
3523;SDS011;1776;53.330;11.498;2023-04-24T03:50:50;6.40;;;4.03;;
3523;SDS011;1776;53.330;11.498;2023-04-24T03:53:15;4.50;;;3.77;;
3523;SDS011;1776;53.330;11.498;2023-04-24T03:55:40;4.43;;;4.03;;
3523;SDS011;1776;53.330;11.498;2023-04-24T03:58:06;7.87;;;3.70;;
3523;SDS011;1776;53.330;11.498;2023-04-24T04:00:31;3.40;;;3.10;;
3523;SDS011;1776;53.330;11.498;2023-04-24T04:02:57;4.03;;;3.63;;
3523;SDS011;1776;53.330;11.498;2023-04-24T04:05:22;4.57;;;3.63;;
3523;SDS011;1776;53.330;11.498;2023-04-24T04:07:47;6.60;;;3.50;;
3523;SDS011;1776;53.330;11.498;2023-04-24T04:10:12;3.43;;;3.13;;
3523;SDS011;1776;53.330;11.498;2023-04-24T04:12:38;5.00;;;3.90;;
3523;SDS011;1776;53.330;11.498;2023-04-24T04:15:03;5.67;;;4.53;;
3523;SDS011;1776;53.330;11.498;2023-04-24T04:17:30;3.60;;;2.80;;
3523;SDS011;1776;53.330;11.498;2023-04-24T04:19:56;4.03;;;3.03;;
3523;SDS011;1776;53.330;11.498;2023-04-24T04:22:22;4.10;;;3.00;;
3523;SDS011;1776;53.330;11.498;2023-04-24T04:24:47;3.37;;;2.60;;
3523;SDS011;1776;53.330;11.498;2023-04-24T04:27:12;4.60;;;3.17;;
3523;SDS011;1776;53.330;11.498;2023-04-24T04:29:38;3.80;;;3.40;;
3523;SDS011;1776;53.330;11.498;2023-04-24T04:32:03;5.40;;;3.73;;
3523;SDS011;1776;53.330;11.498;2023-04-24T04:34:28;5.53;;;3.50;;
3523;SDS011;1776;53.330;11.498;2023-04-24T04:36:54;5.77;;;3.23;;
3523;SDS011;1776;53.330;11.498;2023-04-24T04:39:20;5.60;;;3.30;;
3523;SDS011;1776;53.330;11.498;2023-04-24T04:41:45;3.70;;;3.03;;
3523;SDS011;1776;53.330;11.498;2023-04-24T04:44:13;3.60;;;3.20;;
3523;SDS011;1776;53.330;11.498;2023-04-24T04:46:39;2.53;;;2.33;;
3523;SDS011;1776;53.330;11.498;2023-04-24T04:49:06;3.63;;;3.30;;
3523;SDS011;1776;53.330;11.498;2023-04-24T04:51:33;4.77;;;2.77;;
3523;SDS011;1776;53.330;11.498;2023-04-24T04:53:58;3.23;;;2.80;;
3523;SDS011;1776;53.330;11.498;2023-04-24T04:56:24;2.60;;;2.40;;
3523;SDS011;1776;53.330;11.498;2023-04-24T04:58:49;3.83;;;2.43;;
3523;SDS011;1776;53.330;11.498;2023-04-24T05:01:15;4.33;;;2.90;;
3523;SDS011;1776;53.330;11.498;2023-04-24T05:03:40;4.80;;;4.30;;
3523;SDS011;1776;53.330;11.498;2023-04-24T05:06:05;3.57;;;2.53;;
3523;SDS011;1776;53.330;11.498;2023-04-24T05:08:31;3.33;;;3.00;;
3523;SDS011;1776;53.330;11.498;2023-04-24T05:10:56;3.00;;;2.80;;
3523;SDS011;1776;53.330;11.498;2023-04-24T05:13:21;2.90;;;2.53;;
3523;SDS011;1776;53.330;11.498;2023-04-24T05:15:47;5.40;;;2.57;;
3523;SDS011;1776;53.330;11.498;2023-04-24T05:18:12;2.20;;;1.97;;
3523;SDS011;1776;53.330;11.498;2023-04-24T05:20:37;3.20;;;2.80;;
3523;SDS011;1776;53.330;11.498;2023-04-24T05:23:03;3.07;;;2.40;;
3523;SDS011;1776;53.330;11.498;2023-04-24T05:25:28;5.00;;;2.73;;
3523;SDS011;1776;53.330;11.498;2023-04-24T05:27:53;3.23;;;2.63;;
3523;SDS011;1776;53.330;11.498;2023-04-24T05:30:19;4.03;;;2.47;;
3523;SDS011;1776;53.330;11.498;2023-04-24T05:32:44;2.90;;;2.07;;
3523;SDS011;1776;53.330;11.498;2023-04-24T05:35:10;2.17;;;1.97;;
3523;SDS011;1776;53.330;11.498;2023-04-24T05:37:35;1.90;;;1.70;;
3523;SDS011;1776;53.330;11.498;2023-04-24T05:40:00;2.40;;;2.20;;
3523;SDS011;1776;53.330;11.498;2023-04-24T05:42:26;2.90;;;2.20;;
3523;SDS011;1776;53.330;11.498;2023-04-24T05:44:51;2.10;;;2.00;;
3523;SDS011;1776;53.330;11.498;2023-04-24T05:47:18;2.93;;;2.10;;
3523;SDS011;1776;53.330;11.498;2023-04-24T05:49:44;3.53;;;2.03;;
3523;SDS011;1776;53.330;11.498;2023-04-24T05:52:09;4.60;;;2.00;;
3523;SDS011;1776;53.330;11.498;2023-04-24T05:54:34;3.20;;;1.77;;
3523;SDS011;1776;53.330;11.498;2023-04-24T05:57:00;2.90;;;2.40;;
3523;SDS011;1776;53.330;11.498;2023-04-24T05:59:29;1.50;;;1.37;;
3523;SDS011;1776;53.330;11.498;2023-04-24T06:01:54;2.90;;;2.13;;
3523;SDS011;1776;53.330;11.498;2023-04-24T06:04:19;1.70;;;1.60;;
3523;SDS011;1776;53.330;11.498;2023-04-24T06:06:45;2.63;;;2.37;;
3523;SDS011;1776;53.330;11.498;2023-04-24T06:09:10;2.00;;;1.90;;
3523;SDS011;1776;53.330;11.498;2023-04-24T06:11:36;3.30;;;2.00;;
3523;SDS011;1776;53.330;11.498;2023-04-24T06:14:02;2.33;;;2.00;;
3523;SDS011;1776;53.330;11.498;2023-04-24T06:16:27;2.60;;;2.00;;
3523;SDS011;1776;53.330;11.498;2023-04-24T06:18:52;1.73;;;1.63;;
3523;SDS011;1776;53.330;11.498;2023-04-24T06:21:17;1.43;;;1.33;;
3523;SDS011;1776;53.330;11.498;2023-04-24T06:23:43;1.93;;;1.73;;
3523;SDS011;1776;53.330;11.498;2023-04-24T06:26:08;2.53;;;1.87;;
3523;SDS011;1776;53.330;11.498;2023-04-24T06:28:33;1.83;;;1.73;;
3523;SDS011;1776;53.330;11.498;2023-04-24T06:30:59;4.47;;;1.80;;
3523;SDS011;1776;53.330;11.498;2023-04-24T06:33:24;2.00;;;1.37;;
3523;SDS011;1776;53.330;11.498;2023-04-24T06:35:49;2.63;;;1.33;;
3523;SDS011;1776;53.330;11.498;2023-04-24T06:38:15;1.30;;;1.13;;
3523;SDS011;1776;53.330;11.498;2023-04-24T06:40:40;1.93;;;1.50;;
3523;SDS011;1776;53.330;11.498;2023-04-24T06:43:06;1.57;;;1.47;;
3523;SDS011;1776;53.330;11.498;2023-04-24T06:45:31;1.50;;;1.40;;
3523;SDS011;1776;53.330;11.498;2023-04-24T06:47:56;2.17;;;1.47;;
3523;SDS011;1776;53.330;11.498;2023-04-24T06:50:22;2.63;;;1.60;;
3523;SDS011;1776;53.330;11.498;2023-04-24T06:52:47;1.90;;;1.60;;
3523;SDS011;1776;53.330;11.498;2023-04-24T06:55:12;3.23;;;1.40;;
3523;SDS011;1776;53.330;11.498;2023-04-24T06:57:40;1.77;;;1.23;;
3523;SDS011;1776;53.330;11.498;2023-04-24T07:00:05;2.13;;;1.17;;
3523;SDS011;1776;53.330;11.498;2023-04-24T07:02:32;1.17;;;1.07;;
3523;SDS011;1776;53.330;11.498;2023-04-24T07:04:57;1.60;;;1.50;;
3523;SDS011;1776;53.330;11.498;2023-04-24T07:07:22;1.83;;;1.40;;
3523;SDS011;1776;53.330;11.498;2023-04-24T07:09:48;1.67;;;1.10;;
3523;SDS011;1776;53.330;11.498;2023-04-24T07:12:13;1.53;;;1.43;;
3523;SDS011;1776;53.330;11.498;2023-04-24T07:14:39;2.50;;;1.40;;
3523;SDS011;1776;53.330;11.498;2023-04-24T07:17:05;3.13;;;1.70;;
3523;SDS011;1776;53.330;11.498;2023-04-24T07:19:31;1.87;;;1.40;;
3523;SDS011;1776;53.330;11.498;2023-04-24T07:21:56;1.80;;;1.33;;
3523;SDS011;1776;53.330;11.498;2023-04-24T07:24:23;2.77;;;1.47;;
3523;SDS011;1776;53.330;11.498;2023-04-24T07:26:49;1.53;;;1.40;;
3523;SDS011;1776;53.330;11.498;2023-04-24T07:29:16;1.87;;;1.40;;
3523;SDS011;1776;53.330;11.498;2023-04-24T07:31:41;1.80;;;1.70;;
3523;SDS011;1776;53.330;11.498;2023-04-24T07:34:07;1.73;;;1.40;;
3523;SDS011;1776;53.330;11.498;2023-04-24T07:36:32;1.73;;;1.43;;
3523;SDS011;1776;53.330;11.498;2023-04-24T07:38:57;1.30;;;1.20;;
3523;SDS011;1776;53.330;11.498;2023-04-24T07:41:23;1.53;;;1.40;;
3523;SDS011;1776;53.330;11.498;2023-04-24T07:43:49;1.63;;;1.20;;
3523;SDS011;1776;53.330;11.498;2023-04-24T07:46:14;6.67;;;1.67;;
3523;SDS011;1776;53.330;11.498;2023-04-24T07:48:40;1.40;;;1.20;;
3523;SDS011;1776;53.330;11.498;2023-04-24T07:51:05;1.43;;;1.10;;
3523;SDS011;1776;53.330;11.498;2023-04-24T07:53:30;3.90;;;2.33;;
3523;SDS011;1776;53.330;11.498;2023-04-24T07:55:56;1.80;;;1.17;;
3523;SDS011;1776;53.330;11.498;2023-04-24T07:58:21;1.83;;;1.43;;
3523;SDS011;1776;53.330;11.498;2023-04-24T08:00:47;1.27;;;1.17;;
3523;SDS011;1776;53.330;11.498;2023-04-24T08:03:12;4.50;;;0.90;;
3523;SDS011;1776;53.330;11.498;2023-04-24T08:05:37;1.60;;;1.50;;
3523;SDS011;1776;53.330;11.498;2023-04-24T08:08:03;3.47;;;1.33;;
3523;SDS011;1776;53.330;11.498;2023-04-24T08:10:28;1.23;;;0.90;;
3523;SDS011;1776;53.330;11.498;2023-04-24T08:12:53;3.00;;;1.60;;
3523;SDS011;1776;53.330;11.498;2023-04-24T08:15:20;1.83;;;1.63;;
3523;SDS011;1776;53.330;11.498;2023-04-24T08:17:45;2.00;;;1.37;;
3523;SDS011;1776;53.330;11.498;2023-04-24T08:20:11;1.47;;;1.20;;
3523;SDS011;1776;53.330;11.498;2023-04-24T08:22:42;2.20;;;1.30;;
3523;SDS011;1776;53.330;11.498;2023-04-24T08:25:08;5.13;;;1.30;;
3523;SDS011;1776;53.330;11.498;2023-04-24T08:27:35;3.30;;;1.67;;
3523;SDS011;1776;53.330;11.498;2023-04-24T08:30:02;1.60;;;1.50;;
3523;SDS011;1776;53.330;11.498;2023-04-24T08:32:28;1.93;;;1.13;;
3523;SDS011;1776;53.330;11.498;2023-04-24T08:34:54;2.60;;;1.23;;
3523;SDS011;1776;53.330;11.498;2023-04-24T08:37:21;2.73;;;1.10;;
3523;SDS011;1776;53.330;11.498;2023-04-24T08:39:47;1.40;;;1.20;;
3523;SDS011;1776;53.330;11.498;2023-04-24T08:42:12;2.20;;;1.13;;
3523;SDS011;1776;53.330;11.498;2023-04-24T08:44:39;1.40;;;1.30;;
3523;SDS011;1776;53.330;11.498;2023-04-24T08:47:05;1.80;;;1.17;;
3523;SDS011;1776;53.330;11.498;2023-04-24T08:49:32;1.70;;;1.07;;
3523;SDS011;1776;53.330;11.498;2023-04-24T08:51:58;3.47;;;1.63;;
3523;SDS011;1776;53.330;11.498;2023-04-24T08:54:24;3.23;;;1.23;;
3523;SDS011;1776;53.330;11.498;2023-04-24T08:56:50;1.10;;;0.80;;
3523;SDS011;1776;53.330;11.498;2023-04-24T08:59:18;2.30;;;1.30;;
3523;SDS011;1776;53.330;11.498;2023-04-24T09:01:44;1.93;;;1.30;;
3523;SDS011;1776;53.330;11.498;2023-04-24T09:04:12;1.90;;;0.90;;
3523;SDS011;1776;53.330;11.498;2023-04-24T09:06:40;2.83;;;1.30;;
3523;SDS011;1776;53.330;11.498;2023-04-24T09:09:05;3.43;;;1.90;;
3523;SDS011;1776;53.330;11.498;2023-04-24T09:11:31;1.00;;;0.90;;
3523;SDS011;1776;53.330;11.498;2023-04-24T09:13:57;2.27;;;0.97;;
3523;SDS011;1776;53.330;11.498;2023-04-24T09:16:23;2.40;;;0.90;;
3523;SDS011;1776;53.330;11.498;2023-04-24T09:18:50;2.97;;;1.30;;
3523;SDS011;1776;53.330;11.498;2023-04-24T09:21:16;0.83;;;0.80;;
3523;SDS011;1776;53.330;11.498;2023-04-24T09:23:41;0.80;;;0.80;;
3523;SDS011;1776;53.330;11.498;2023-04-24T09:26:06;2.63;;;1.00;;
3523;SDS011;1776;53.330;11.498;2023-04-24T09:28:37;1.30;;;1.20;;
3523;SDS011;1776;53.330;11.498;2023-04-24T09:31:05;2.27;;;1.30;;
3523;SDS011;1776;53.330;11.498;2023-04-24T09:33:30;1.17;;;1.00;;
3523;SDS011;1776;53.330;11.498;2023-04-24T09:35:56;0.80;;;0.80;;
3523;SDS011;1776;53.330;11.498;2023-04-24T09:38:37;2.50;;;1.00;;
3523;SDS011;1776;53.330;11.498;2023-04-24T09:41:04;1.33;;;1.20;;
3523;SDS011;1776;53.330;11.498;2023-04-24T09:43:31;1.30;;;1.20;;
3523;SDS011;1776;53.330;11.498;2023-04-24T09:45:57;4.00;;;1.30;;
3523;SDS011;1776;53.330;11.498;2023-04-24T09:48:30;1.23;;;1.10;;
3523;SDS011;1776;53.330;11.498;2023-04-24T09:50:59;1.30;;;1.07;;
3523;SDS011;1776;53.330;11.498;2023-04-24T09:53:26;1.67;;;1.10;;
3523;SDS011;1776;53.330;11.498;2023-04-24T09:55:52;1.43;;;1.00;;
3523;SDS011;1776;53.330;11.498;2023-04-24T09:58:18;2.20;;;1.10;;
3523;SDS011;1776;53.330;11.498;2023-04-24T10:00:49;0.80;;;0.80;;
3523;SDS011;1776;53.330;11.498;2023-04-24T10:03:15;2.00;;;1.20;;
3523;SDS011;1776;53.330;11.498;2023-04-24T10:05:42;2.10;;;1.00;;
3523;SDS011;1776;53.330;11.498;2023-04-24T10:08:11;1.37;;;1.27;;
3523;SDS011;1776;53.330;11.498;2023-04-24T10:10:39;1.40;;;1.30;;
3523;SDS011;1776;53.330;11.498;2023-04-24T10:13:05;1.83;;;1.20;;
3523;SDS011;1776;53.330;11.498;2023-04-24T10:15:32;1.47;;;1.00;;
3523;SDS011;1776;53.330;11.498;2023-04-24T10:17:58;3.30;;;1.40;;
3523;SDS011;1776;53.330;11.498;2023-04-24T10:20:25;1.50;;;1.03;;
3523;SDS011;1776;53.330;11.498;2023-04-24T10:22:52;3.50;;;1.60;;
3523;SDS011;1776;53.330;11.498;2023-04-24T10:25:19;2.27;;;1.40;;
3523;SDS011;1776;53.330;11.498;2023-04-24T10:27:46;4.23;;;1.10;;
3523;SDS011;1776;53.330;11.498;2023-04-24T10:30:13;1.33;;;1.20;;
3523;SDS011;1776;53.330;11.498;2023-04-24T10:32:39;2.80;;;2.60;;
3523;SDS011;1776;53.330;11.498;2023-04-24T10:35:05;1.30;;;1.20;;
3523;SDS011;1776;53.330;11.498;2023-04-24T10:37:35;2.10;;;1.13;;
3523;SDS011;1776;53.330;11.498;2023-04-24T10:40:03;2.30;;;1.90;;
3523;SDS011;1776;53.330;11.498;2023-04-24T10:42:28;1.60;;;1.50;;
3523;SDS011;1776;53.330;11.498;2023-04-24T10:44:54;3.03;;;1.73;;
3523;SDS011;1776;53.330;11.498;2023-04-24T10:47:20;1.60;;;1.50;;
3523;SDS011;1776;53.330;11.498;2023-04-24T10:49:46;2.03;;;1.93;;
3523;SDS011;1776;53.330;11.498;2023-04-24T10:52:11;2.70;;;1.30;;
3523;SDS011;1776;53.330;11.498;2023-04-24T10:59:45;1.50;;;1.40;;
3523;SDS011;1776;53.330;11.498;2023-04-24T11:02:14;2.30;;;1.33;;
3523;SDS011;1776;53.330;11.498;2023-04-24T11:04:40;2.03;;;1.60;;
3523;SDS011;1776;53.330;11.498;2023-04-24T11:07:07;2.10;;;1.33;;
3523;SDS011;1776;53.330;11.498;2023-04-24T11:09:34;2.00;;;1.90;;
3523;SDS011;1776;53.330;11.498;2023-04-24T11:12:05;2.33;;;1.73;;
3523;SDS011;1776;53.330;11.498;2023-04-24T11:17:35;1.93;;;1.73;;
3523;SDS011;1776;53.330;11.498;2023-04-24T11:20:03;1.80;;;1.67;;
3523;SDS011;1776;53.330;11.498;2023-04-24T11:22:34;3.00;;;2.40;;
3523;SDS011;1776;53.330;11.498;2023-04-24T11:25:04;2.47;;;2.27;;
3523;SDS011;1776;53.330;11.498;2023-04-24T11:27:34;2.97;;;2.73;;
3523;SDS011;1776;53.330;11.498;2023-04-24T11:30:04;3.53;;;2.63;;
3523;SDS011;1776;53.330;11.498;2023-04-24T11:35:02;4.10;;;2.87;;
3523;SDS011;1776;53.330;11.498;2023-04-24T11:37:41;2.60;;;2.40;;
3523;SDS011;1776;53.330;11.498;2023-04-24T11:40:08;4.47;;;2.90;;
3523;SDS011;1776;53.330;11.498;2023-04-24T11:42:39;3.77;;;3.43;;
3523;SDS011;1776;53.330;11.498;2023-04-24T11:45:24;2.93;;;2.70;;
3523;SDS011;1776;53.330;11.498;2023-04-24T11:47:52;5.67;;;2.60;;
3523;SDS011;1776;53.330;11.498;2023-04-24T11:50:18;7.93;;;3.70;;
3523;SDS011;1776;53.330;11.498;2023-04-24T11:52:45;4.40;;;3.60;;
3523;SDS011;1776;53.330;11.498;2023-04-24T11:55:30;7.57;;;4.00;;
3523;SDS011;1776;53.330;11.498;2023-04-24T11:57:58;4.47;;;3.97;;
3523;SDS011;1776;53.330;11.498;2023-04-24T12:00:26;4.80;;;4.10;;
3523;SDS011;1776;53.330;11.498;2023-04-24T12:03:03;4.47;;;3.30;;
3523;SDS011;1776;53.330;11.498;2023-04-24T12:05:30;4.40;;;3.80;;
3523;SDS011;1776;53.330;11.498;2023-04-24T12:07:59;4.37;;;3.97;;
3523;SDS011;1776;53.330;11.498;2023-04-24T12:10:25;5.00;;;4.17;;
3523;SDS011;1776;53.330;11.498;2023-04-24T12:12:53;4.77;;;3.70;;
3523;SDS011;1776;53.330;11.498;2023-04-24T12:15:20;4.43;;;3.70;;
3523;SDS011;1776;53.330;11.498;2023-04-24T12:17:45;5.40;;;3.90;;
3523;SDS011;1776;53.330;11.498;2023-04-24T12:20:11;4.10;;;3.70;;
3523;SDS011;1776;53.330;11.498;2023-04-24T12:22:50;5.93;;;3.50;;
3523;SDS011;1776;53.330;11.498;2023-04-24T12:25:18;4.30;;;3.30;;
3523;SDS011;1776;53.330;11.498;2023-04-24T12:27:45;4.90;;;3.67;;
3523;SDS011;1776;53.330;11.498;2023-04-24T12:30:12;8.97;;;4.43;;
3523;SDS011;1776;53.330;11.498;2023-04-24T12:32:42;4.17;;;3.77;;
3523;SDS011;1776;53.330;11.498;2023-04-24T12:35:09;3.70;;;3.40;;
3523;SDS011;1776;53.330;11.498;2023-04-24T12:37:34;4.70;;;3.33;;
3523;SDS011;1776;53.330;11.498;2023-04-24T12:40:02;5.13;;;3.83;;
3523;SDS011;1776;53.330;11.498;2023-04-24T12:42:28;9.83;;;4.30;;
3523;SDS011;1776;53.330;11.498;2023-04-24T12:45:04;4.30;;;3.90;;
3523;SDS011;1776;53.330;11.498;2023-04-24T12:47:31;4.53;;;4.13;;
3523;SDS011;1776;53.330;11.498;2023-04-24T12:49:58;3.80;;;3.50;;
3523;SDS011;1776;53.330;11.498;2023-04-24T12:52:24;7.33;;;4.20;;
3523;SDS011;1776;53.330;11.498;2023-04-24T12:54:52;5.40;;;3.83;;
3523;SDS011;1776;53.330;11.498;2023-04-24T12:57:17;8.03;;;4.17;;
3523;SDS011;1776;53.330;11.498;2023-04-24T12:59:43;5.27;;;3.73;;
3523;SDS011;1776;53.330;11.498;2023-04-24T13:02:08;4.77;;;4.03;;
3523;SDS011;1776;53.330;11.498;2023-04-24T13:04:34;6.73;;;4.27;;
3523;SDS011;1776;53.330;11.498;2023-04-24T13:07:00;3.70;;;3.30;;
3523;SDS011;1776;53.330;11.498;2023-04-24T13:09:25;5.63;;;3.60;;
3523;SDS011;1776;53.330;11.498;2023-04-24T13:11:50;4.30;;;3.90;;
3523;SDS011;1776;53.330;11.498;2023-04-24T13:14:16;4.30;;;3.90;;
3523;SDS011;1776;53.330;11.498;2023-04-24T13:16:41;3.97;;;3.20;;
3523;SDS011;1776;53.330;11.498;2023-04-24T13:19:06;3.50;;;3.07;;
3523;SDS011;1776;53.330;11.498;2023-04-24T13:21:31;4.60;;;3.03;;
3523;SDS011;1776;53.330;11.498;2023-04-24T13:23:57;4.57;;;2.57;;
3523;SDS011;1776;53.330;11.498;2023-04-24T13:26:22;5.03;;;2.37;;
3523;SDS011;1776;53.330;11.498;2023-04-24T13:28:48;3.07;;;2.03;;
3523;SDS011;1776;53.330;11.498;2023-04-24T13:31:13;5.00;;;2.20;;
3523;SDS011;1776;53.330;11.498;2023-04-24T13:33:38;2.90;;;2.37;;
3523;SDS011;1776;53.330;11.498;2023-04-24T13:36:04;2.80;;;2.60;;
3523;SDS011;1776;53.330;11.498;2023-04-24T13:38:30;8.00;;;2.30;;
3523;SDS011;1776;53.330;11.498;2023-04-24T13:40:55;3.33;;;1.93;;
3523;SDS011;1776;53.330;11.498;2023-04-24T13:43:20;1.50;;;1.40;;
3523;SDS011;1776;53.330;11.498;2023-04-24T13:45:46;2.83;;;2.00;;
3523;SDS011;1776;53.330;11.498;2023-04-24T13:48:11;2.93;;;1.97;;
3523;SDS011;1776;53.330;11.498;2023-04-24T13:50:38;4.00;;;2.63;;
3523;SDS011;1776;53.330;11.498;2023-04-24T13:53:03;2.70;;;2.43;;
3523;SDS011;1776;53.330;11.498;2023-04-24T13:55:29;2.30;;;1.77;;
3523;SDS011;1776;53.330;11.498;2023-04-24T13:57:54;4.20;;;2.60;;
3523;SDS011;1776;53.330;11.498;2023-04-24T14:00:20;2.57;;;1.90;;
3523;SDS011;1776;53.330;11.498;2023-04-24T14:02:45;3.53;;;2.30;;
3523;SDS011;1776;53.330;11.498;2023-04-24T14:05:11;2.60;;;1.90;;
3523;SDS011;1776;53.330;11.498;2023-04-24T14:07:37;3.30;;;2.07;;
3523;SDS011;1776;53.330;11.498;2023-04-24T14:10:02;2.57;;;1.90;;
3523;SDS011;1776;53.330;11.498;2023-04-24T14:12:28;3.07;;;2.20;;
3523;SDS011;1776;53.330;11.498;2023-04-24T14:14:54;1.67;;;1.53;;
3523;SDS011;1776;53.330;11.498;2023-04-24T14:17:19;2.20;;;1.73;;
3523;SDS011;1776;53.330;11.498;2023-04-24T14:19:44;3.00;;;2.00;;
3523;SDS011;1776;53.330;11.498;2023-04-24T14:22:10;2.33;;;1.53;;
3523;SDS011;1776;53.330;11.498;2023-04-24T14:24:35;2.57;;;1.93;;
3523;SDS011;1776;53.330;11.498;2023-04-24T14:27:01;2.03;;;1.80;;
3523;SDS011;1776;53.330;11.498;2023-04-24T14:29:26;2.47;;;1.70;;
3523;SDS011;1776;53.330;11.498;2023-04-24T14:31:51;2.50;;;2.30;;
3523;SDS011;1776;53.330;11.498;2023-04-24T14:34:17;6.37;;;2.30;;
3523;SDS011;1776;53.330;11.498;2023-04-24T14:36:42;2.00;;;1.57;;
3523;SDS011;1776;53.330;11.498;2023-04-24T14:39:07;2.80;;;2.60;;
3523;SDS011;1776;53.330;11.498;2023-04-24T14:41:33;2.67;;;2.47;;
3523;SDS011;1776;53.330;11.498;2023-04-24T14:44:01;1.80;;;1.70;;
3523;SDS011;1776;53.330;11.498;2023-04-24T14:46:27;2.60;;;2.27;;
3523;SDS011;1776;53.330;11.498;2023-04-24T14:48:54;1.87;;;1.57;;
3523;SDS011;1776;53.330;11.498;2023-04-24T14:51:19;3.07;;;2.03;;
3523;SDS011;1776;53.330;11.498;2023-04-24T14:53:44;1.70;;;1.40;;
3523;SDS011;1776;53.330;11.498;2023-04-24T14:56:11;1.60;;;1.40;;
3523;SDS011;1776;53.330;11.498;2023-04-24T14:58:36;1.60;;;1.50;;
3523;SDS011;1776;53.330;11.498;2023-04-24T15:01:02;1.47;;;1.37;;
3523;SDS011;1776;53.330;11.498;2023-04-24T15:03:27;1.60;;;1.50;;
3523;SDS011;1776;53.330;11.498;2023-04-24T15:05:52;2.80;;;1.63;;